Ellabell, Georgia
Current Conditions -  °F | °C
As of 12:58 PM on Friday 21 Nov 2014 (Local Time) from KLHW Reporting Station
Clear Clear  
Wind Chill: 67°   Ceiling: Unl
Heat Index: 67°   Visibility: 10mi
Dew Point: 28°   Wind: 9mph
Humidity: 23%   Direction: 40°NE
Pressure: 30.34"   Gusts: NA
Location:  32.12°N, 81.49°W
Report Text: KLHW 211758Z AUTO 04008KT 10SM CLR 19/M02 A3034 RMK AO2 SLP277 T01941021 10195 20028 58012
Loading
Personal Weather Stations






























Interactive Weather Map New forecast layout! Learn more

10-Day Weather Forecast

Advertisements
Track Severe Weather on mobile